Hollowayville, Illinois
Current Conditions -  °F | °C
As of 6:15 PM on Wednesday 26 Nov 2014 (Local Time) from KVYS Reporting Station
Overcast Overcast  
Wind Chill: 19°   Ceiling: 1600
Heat Index: 28°   Visibility: 10mi
Dew Point: 23°   Wind: 9mph
Humidity: 83%   Direction: 30°NNE
Pressure: 30.14"   Gusts: NA
Location:  41.3609°N, 89.3981°W
Report Text: KVYS 270015Z AUTO 03008KT 10SM OVC016 M02/M05 A3014 RMK AO2 T10251051
Loading
Personal Weather Stations






























Interactive Weather Map New forecast layout! Learn more

10-Day Weather Forecast

Advertisements
Track Severe Weather on mobile